Time;durP1;ratioP1;P1;durP2;ratioP2;P2;SDS_P1;SDS_P2;PMS_P1;PMS_P2;Temp;Humidity;BMP_temperature;BMP_pressure;BME280_temperature;BME280_humidity;BME280_pressure;Samples;Min_cycle;Max_cycle;Signal;HPM_P1;HPM_P2
2021/09/08 00:00:44;;;;;;;19.90;13.50;;;12.70;96.50;;;;;;5067437;28;20264;-83
2021/09/08 00:03:11;;;;;;;14.88;12.82;;;12.60;96.30;;;;;;5061164;28;20202;-83
2021/09/08 00:05:40;;;;;;;14.85;12.70;;;12.40;96.80;;;;;;5067414;28;20256;-84
2021/09/08 00:08:07;;;;;;;15.85;12.90;;;12.40;97.30;;;;;;5068546;28;20395;-84
2021/09/08 00:10:35;;;;;;;16.70;13.30;;;12.50;97.10;;;;;;5057130;28;20226;-83
2021/09/08 00:13:02;;;;;;;14.18;12.68;;;12.50;96.90;;;;;;5063896;28;20206;-83
2021/09/08 00:15:29;;;;;;;16.63;12.40;;;12.50;97.00;;;;;;5067372;28;20226;-83
2021/09/08 00:17:59;;;;;;;14.82;12.88;;;12.50;97.00;;;;;;5068514;28;20220;-84
2021/09/08 00:20:26;;;;;;;14.05;12.15;;;12.50;96.90;;;;;;5067177;28;20229;-83
2021/09/08 00:22:53;;;;;;;17.10;13.35;;;12.50;96.70;;;;;;5061350;28;20206;-85
2021/09/08 00:25:20;;;;;;;14.77;12.23;;;12.40;96.70;;;;;;5066826;28;20225;-85
2021/09/08 00:27:47;;;;;;;16.13;13.13;;;12.30;96.80;;;;;;5068234;28;20264;-83
2021/09/08 00:30:14;;;;;;;14.90;12.27;;;12.20;97.00;;;;;;5067165;28;21004;-83
2021/09/08 00:32:42;;;;;;;15.93;12.40;;;12.10;97.10;;;;;;5062604;28;20225;-84
2021/09/08 00:35:11;;;;;;;17.08;13.25;;;12.10;97.20;;;;;;5067010;28;20914;-83
2021/09/08 00:37:39;;;;;;;14.10;12.60;;;12.10;97.40;;;;;;5068267;28;20218;-83
2021/09/08 00:40:07;;;;;;;16.52;13.35;;;12.20;97.20;;;;;;5064101;28;20233;-83
2021/09/08 00:42:35;;;;;;;14.85;12.77;;;12.20;96.90;;;;;;5065114;28;20274;-84
2021/09/08 00:45:02;;;;;;;14.73;12.65;;;12.20;96.80;;;;;;5061285;28;20194;-84
2021/09/08 00:47:29;;;;;;;13.85;12.05;;;12.20;96.80;;;;;;5057448;28;20285;-85
2021/09/08 00:49:56;;;;;;;17.00;13.13;;;12.20;96.90;;;;;;5067133;28;20201;-86
2021/09/08 00:52:25;;;;;;;14.55;12.45;;;12.00;96.90;;;;;;5066083;28;20230;-84
2021/09/08 00:54:52;;;;;;;15.27;12.98;;;12.00;97.10;;;;;;5067694;28;20225;-83
2021/09/08 00:57:21;;;;;;;16.27;13.07;;;12.00;97.20;;;;;;5064919;28;20204;-83
2021/09/08 00:59:49;;;;;;;14.30;12.13;;;12.00;97.00;;;;;;5065848;28;20248;-83
2021/09/08 01:02:15;;;;;;;14.50;12.32;;;12.00;97.00;;;;;;5065446;28;20217;-83
2021/09/08 01:04:42;;;;;;;16.38;12.38;;;12.00;96.90;;;;;;5062253;28;20194;-83
2021/09/08 01:07:10;;;;;;;14.25;12.13;;;12.00;96.70;;;;;;5057317;28;20226;-83
2021/09/08 01:09:39;;;;;;;15.90;12.65;;;12.00;96.90;;;;;;5068101;28;20265;-85
2021/09/08 01:12:06;;;;;;;18.08;12.75;;;11.90;96.80;;;;;;5066320;28;20304;-83
2021/09/08 01:14:33;;;;;;;15.55;12.85;;;11.90;97.00;;;;;;5063111;28;20199;-83
2021/09/08 01:17:00;;;;;;;15.57;12.18;;;11.80;97.40;;;;;;5067140;28;20241;-83
2021/09/08 01:19:27;;;;;;;16.92;12.50;;;11.80;97.20;;;;;;5063924;28;20229;-83
2021/09/08 01:21:54;;;;;;;15.43;12.30;;;11.80;97.20;;;;;;5062016;28;20217;-83
2021/09/08 01:24:23;;;;;;;18.95;12.70;;;11.80;97.20;;;;;;5066668;28;20197;-85
2021/09/08 01:26:53;;;;;;;14.88;12.20;;;11.70;97.30;;;;;;5068161;28;20688;-84
2021/09/08 01:29:20;;;;;;;14.15;12.48;;;11.60;97.40;;;;;;5068489;28;20198;-83
2021/09/08 01:31:54;;;;;;;14.50;12.20;;;11.60;97.40;;;;;;5068315;28;20232;-84
2021/09/08 01:34:21;;;;;;;16.23;11.98;;;11.70;97.20;;;;;;5066673;28;20224;-84
2021/09/08 01:36:48;;;;;;;15.60;12.25;;;11.70;97.10;;;;;;5057106;28;20237;-84
2021/09/08 01:39:18;;;;;;;15.68;12.68;;;11.70;96.90;;;;;;5067423;28;20237;-83
2021/09/08 01:41:48;;;;;;;12.80;11.50;;;11.60;97.00;;;;;;5065236;28;20584;-83
2021/09/08 01:44:19;;;;;;;13.77;11.65;;;11.50;97.10;;;;;;5071117;28;20201;-84
2021/09/08 01:46:46;;;;;;;13.07;11.68;;;11.40;97.30;;;;;;5071242;28;20257;-85
2021/09/08 01:49:14;;;;;;;12.75;11.35;;;11.40;97.50;;;;;;5069951;28;20190;-83
2021/09/08 01:51:41;;;;;;;15.55;11.77;;;11.50;97.60;;;;;;5070103;28;20292;-83
2021/09/08 01:54:08;;;;;;;14.25;11.18;;;11.50;97.40;;;;;;5070780;28;20611;-84
2021/09/08 01:56:35;;;;;;;14.00;11.27;;;11.60;97.20;;;;;;5068852;28;20245;-84
2021/09/08 01:59:03;;;;;;;14.88;11.45;;;11.60;97.10;;;;;;5070978;28;20221;-84
2021/09/08 02:01:30;;;;;;;14.18;11.40;;;11.50;97.20;;;;;;5065961;28;20269;-83
2021/09/08 02:03:57;;;;;;;13.02;11.05;;;11.50;97.20;;;;;;5068673;28;20211;-83
2021/09/08 02:06:26;;;;;;;14.18;11.52;;;11.50;97.40;;;;;;5071825;28;20245;-83
2021/09/08 02:08:53;;;;;;;12.68;11.27;;;11.50;97.20;;;;;;5071408;28;20206;-83
2021/09/08 02:11:20;;;;;;;12.50;11.15;;;11.50;97.20;;;;;;5064229;28;20249;-83
2021/09/08 02:13:47;;;;;;;14.50;11.52;;;11.50;97.00;;;;;;5064506;28;20628;-83
2021/09/08 02:16:20;;;;;;;15.18;11.85;;;11.50;97.10;;;;;;5067438;28;20289;-84
2021/09/08 02:18:47;;;;;;;13.85;11.65;;;11.30;97.10;;;;;;5070928;28;20205;-83
2021/09/08 02:21:14;;;;;;;14.85;12.07;;;11.30;97.60;;;;;;5070202;28;20427;-84
2021/09/08 02:23:41;;;;;;;13.95;11.40;;;11.30;97.60;;;;;;5063305;28;20206;-85
2021/09/08 02:26:08;;;;;;;15.07;11.77;;;11.30;97.50;;;;;;5070822;28;20297;-84
2021/09/08 02:28:35;;;;;;;14.50;11.77;;;11.30;97.40;;;;;;5068102;28;20209;-83
2021/09/08 02:31:03;;;;;;;13.15;11.18;;;11.30;97.60;;;;;;5068740;28;20257;-84
2021/09/08 02:33:31;;;;;;;13.30;11.30;;;11.20;97.50;;;;;;5066116;28;20333;-84
2021/09/08 02:35:58;;;;;;;14.40;11.88;;;11.20;97.70;;;;;;5067726;28;20248;-84
2021/09/08 02:38:25;;;;;;;15.25;11.88;;;11.20;97.70;;;;;;5066243;28;20317;-84
2021/09/08 02:40:52;;;;;;;16.60;11.65;;;11.30;97.60;;;;;;5071162;28;20297;-84
2021/09/08 02:43:19;;;;;;;13.35;11.95;;;11.20;97.30;;;;;;5071285;28;20240;-83
2021/09/08 02:45:45;;;;;;;14.13;11.45;;;11.20;97.30;;;;;;5071174;28;20301;-83
2021/09/08 02:48:12;;;;;;;15.80;12.38;;;11.10;97.70;;;;;;5071864;28;20229;-83
2021/09/08 02:50:41;;;;;;;13.82;11.70;;;11.10;97.70;;;;;;5069164;28;20249;-84
2021/09/08 02:53:08;;;;;;;14.00;11.85;;;11.20;97.60;;;;;;5066433;28;20194;-83
2021/09/08 02:55:35;;;;;;;13.32;11.48;;;11.20;97.40;;;;;;5067292;28;20249;-83
2021/09/08 02:58:02;;;;;;;14.50;12.13;;;11.20;97.50;;;;;;5070723;28;20233;-85
2021/09/08 03:00:29;;;;;;;14.35;11.10;;;11.20;97.50;;;;;;5069873;28;20285;-84
2021/09/08 03:02:56;;;;;;;14.30;11.55;;;11.20;97.40;;;;;;5071078;28;20261;-83
2021/09/08 03:05:23;;;;;;;15.25;11.20;;;11.10;97.50;;;;;;5070243;28;20280;-86
2021/09/08 03:07:51;;;;;;;14.95;11.20;;;11.20;97.40;;;;;;5071080;28;20293;-83
2021/09/08 03:10:18;;;;;;;14.15;11.50;;;11.20;97.40;;;;;;5061839;28;20314;-83
2021/09/08 03:12:45;;;;;;;16.05;11.73;;;11.20;97.40;;;;;;5071212;28;20649;-84
2021/09/08 03:15:12;;;;;;;14.25;11.70;;;11.10;97.30;;;;;;5070495;28;20321;-83
2021/09/08 03:17:40;;;;;;;14.48;11.18;;;11.00;97.80;;;;;;5070750;28;20296;-83
2021/09/08 03:20:07;;;;;;;13.00;11.23;;;11.10;97.80;;;;;;5068313;28;20308;-83
2021/09/08 03:22:34;;;;;;;13.52;11.40;;;11.10;97.60;;;;;;5069793;28;20632;-83
2021/09/08 03:25:02;;;;;;;13.55;11.63;;;11.10;97.60;;;;;;5070290;28;20201;-85
2021/09/08 03:27:29;;;;;;;15.10;12.07;;;11.20;97.40;;;;;;5058429;28;20257;-83
2021/09/08 03:29:56;;;;;;;15.18;12.50;;;11.10;97.50;;;;;;5068454;28;20233;-83
2021/09/08 03:32:23;;;;;;;13.55;11.60;;;11.00;97.50;;;;;;5070623;28;20286;-83
2021/09/08 03:34:50;;;;;;;14.07;12.02;;;11.00;97.90;;;;;;5069107;28;20205;-83
2021/09/08 03:37:17;;;;;;;12.30;11.00;;;11.00;97.90;;;;;;5066032;28;20262;-83
2021/09/08 03:39:44;;;;;;;14.82;12.35;;;11.00;97.90;;;;;;5063565;28;20229;-86
2021/09/08 03:42:12;;;;;;;15.15;11.80;;;11.10;97.70;;;;;;5057384;28;20252;-83
2021/09/08 03:44:39;;;;;;;14.70;12.10;;;11.10;97.60;;;;;;5065358;28;20713;-83
2021/09/08 03:47:06;;;;;;;15.23;12.55;;;11.10;97.70;;;;;;5070046;28;20236;-83
2021/09/08 03:49:33;;;;;;;15.40;12.35;;;11.00;97.50;;;;;;5068959;28;20229;-84
2021/09/08 03:52:00;;;;;;;14.27;11.48;;;10.90;97.70;;;;;;5068664;28;20237;-84
2021/09/08 03:54:27;;;;;;;13.50;11.50;;;11.00;97.70;;;;;;5070541;28;20253;-83
2021/09/08 03:56:54;;;;;;;13.18;11.52;;;11.00;97.60;;;;;;5062733;28;20256;-85
2021/09/08 03:59:22;;;;;;;13.38;11.25;;;11.00;97.60;;;;;;5059301;28;20273;-83
2021/09/08 04:01:50;;;;;;;15.73;12.25;;;11.00;97.60;;;;;;5067767;28;20222;-83
2021/09/08 04:04:16;;;;;;;14.27;12.38;;;11.00;97.30;;;;;;5069510;28;20201;-83
2021/09/08 04:06:44;;;;;;;17.30;12.25;;;11.10;97.40;;;;;;5068825;28;20229;-84
2021/09/08 04:09:10;;;;;;;14.20;12.57;;;11.00;97.50;;;;;;5069880;28;20236;-83
2021/09/08 04:11:37;;;;;;;18.45;12.50;;;10.90;97.70;;;;;;5067162;28;20226;-83
2021/09/08 04:14:04;;;;;;;14.45;11.82;;;10.90;97.90;;;;;;5067145;28;20226;-83
2021/09/08 04:16:32;;;;;;;13.35;11.73;;;10.90;97.80;;;;;;5063722;28;20228;-83
2021/09/08 04:18:59;;;;;;;14.57;11.93;;;11.00;97.70;;;;;;5068580;28;20240;-83
2021/09/08 04:21:26;;;;;;;12.80;11.30;;;11.00;97.70;;;;;;5062327;28;20232;-83
2021/09/08 04:23:53;;;;;;;14.15;11.65;;;11.00;97.70;;;;;;5069334;28;20213;-83
2021/09/08 04:26:21;;;;;;;17.73;11.80;;;11.00;97.60;;;;;;5067535;28;20241;-83
2021/09/08 04:28:48;;;;;;;17.08;11.95;;;10.90;97.60;;;;;;5067860;28;20269;-83
2021/09/08 04:31:14;;;;;;;14.95;12.25;;;10.90;97.60;;;;;;5067924;28;20225;-84
2021/09/08 04:33:43;;;;;;;13.52;11.35;;;10.90;97.60;;;;;;5068964;28;20222;-83
2021/09/08 04:36:10;;;;;;;12.85;11.40;;;10.90;97.50;;;;;;5065710;28;20289;-84
2021/09/08 04:38:38;;;;;;;13.40;11.23;;;10.90;97.50;;;;;;5061997;28;20238;-83
2021/09/08 04:41:05;;;;;;;13.55;12.02;;;10.80;97.50;;;;;;5065468;28;20256;-84
2021/09/08 04:43:34;;;;;;;14.07;11.55;;;10.70;97.50;;;;;;5064526;28;20253;-84
2021/09/08 04:46:02;;;;;;;15.88;11.93;;;10.80;97.70;;;;;;5067041;28;20245;-86
2021/09/08 04:48:29;;;;;;;16.65;11.75;;;10.80;97.70;;;;;;5066201;28;20258;-84
2021/09/08 04:50:57;;;;;;;19.02;11.75;;;10.70;97.70;;;;;;5068068;28;20253;-86
2021/09/08 04:53:24;;;;;;;14.68;11.55;;;10.70;97.70;;;;;;5068940;28;20198;-83
2021/09/08 04:55:51;;;;;;;14.95;12.07;;;10.70;97.70;;;;;;5068282;28;20264;-83
2021/09/08 04:58:18;;;;;;;14.40;11.52;;;10.60;97.90;;;;;;5069220;28;20255;-85
2021/09/08 05:00:45;;;;;;;15.40;11.93;;;10.80;97.80;;;;;;5067750;28;20230;-84
2021/09/08 05:03:12;;;;;;;13.68;11.93;;;10.70;97.70;;;;;;5068442;28;20224;-84
2021/09/08 05:05:39;;;;;;;17.17;11.95;;;10.70;97.80;;;;;;5067694;28;20618;-84
2021/09/08 05:08:07;;;;;;;13.80;11.30;;;10.80;97.90;;;;;;5068589;28;20225;-84
2021/09/08 05:10:34;;;;;;;13.55;11.98;;;10.80;97.70;;;;;;5064913;28;20305;-84
2021/09/08 05:13:01;;;;;;;16.20;11.77;;;10.90;97.70;;;;;;5067489;28;20240;-83
2021/09/08 05:15:29;;;;;;;17.45;12.35;;;10.90;97.70;;;;;;5068017;28;20230;-83
2021/09/08 05:17:56;;;;;;;13.93;12.07;;;10.90;97.70;;;;;;5069618;28;20202;-83
2021/09/08 05:20:23;;;;;;;15.73;12.05;;;10.90;97.80;;;;;;5071675;28;20245;-83
2021/09/08 05:22:50;;;;;;;15.25;12.40;;;10.90;98.00;;;;;;5071022;28;20284;-83
2021/09/08 05:25:18;;;;;;;13.60;11.23;;;11.00;98.20;;;;;;5061763;28;20256;-83
2021/09/08 05:27:45;;;;;;;14.93;11.65;;;11.20;98.10;;;;;;5069297;28;20205;-84
2021/09/08 05:30:12;;;;;;;14.23;11.60;;;11.30;97.90;;;;;;5068349;28;20296;-84
2021/09/08 05:32:39;;;;;;;13.95;11.13;;;11.40;97.80;;;;;;5064501;28;20222;-83
2021/09/08 05:35:12;;;;;;;16.10;11.73;;;11.50;97.60;;;;;;5071035;28;20236;-84
2021/09/08 05:37:39;;;;;;;14.25;11.85;;;11.50;97.40;;;;;;5066222;28;20232;-85
2021/09/08 05:40:07;;;;;;;15.27;12.48;;;11.60;97.50;;;;;;5070584;28;20280;-84
2021/09/08 05:42:35;;;;;;;14.10;11.82;;;11.60;97.70;;;;;;5065289;28;20590;-83
2021/09/08 05:45:02;;;;;;;15.20;12.02;;;11.60;97.70;;;;;;5069162;28;20269;-83
2021/09/08 05:47:29;;;;;;;15.07;12.70;;;11.70;97.80;;;;;;5068396;28;20261;-83
2021/09/08 05:49:56;;;;;;;15.90;12.65;;;11.70;97.80;;;;;;5070038;28;20276;-84
2021/09/08 05:52:23;;;;;;;13.93;12.30;;;11.80;98.10;;;;;;5071271;28;20252;-85
2021/09/08 05:54:50;;;;;;;16.35;14.00;;;11.80;98.00;;;;;;5071069;28;20209;-84
2021/09/08 05:57:17;;;;;;;19.00;14.93;;;11.90;98.00;;;;;;5064420;28;20214;-83
2021/09/08 05:59:45;;;;;;;20.05;14.98;;;11.90;97.90;;;;;;5071460;28;20221;-84
2021/09/08 06:02:12;;;;;;;16.27;14.35;;;12.00;97.90;;;;;;5070809;28;20309;-83
2021/09/08 06:04:39;;;;;;;19.60;14.27;;;12.00;97.80;;;;;;5072808;28;20254;-85
2021/09/08 06:07:06;;;;;;;16.85;14.57;;;12.10;97.80;;;;;;5069941;28;20224;-84
2021/09/08 06:09:33;;;;;;;19.63;14.45;;;12.20;97.70;;;;;;5065398;28;20194;-84
2021/09/08 06:12:08;;;;;;;18.58;14.45;;;12.20;97.40;;;;;;5064924;28;20583;-84
2021/09/08 06:14:35;;;;;;;18.00;14.23;;;12.30;97.30;;;;;;5068368;28;20217;-84
2021/09/08 06:17:16;;;;;;;18.92;14.73;;;12.50;97.20;;;;;;5067733;28;20310;-85
2021/09/08 06:19:47;;;;;;;16.73;14.30;;;12.50;97.10;;;;;;5065840;28;20281;-84
2021/09/08 06:22:15;;;;;;;17.80;14.48;;;12.60;96.80;;;;;;5061906;28;20324;-84
2021/09/08 06:24:42;;;;;;;16.52;14.45;;;12.80;96.40;;;;;;5068329;28;20205;-84
2021/09/08 06:27:12;;;;;;;16.50;14.57;;;12.90;96.40;;;;;;5069792;28;20226;-84
2021/09/08 06:29:57;;;;;;;17.92;14.43;;;12.90;96.40;;;;;;5066700;28;20202;-85
2021/09/08 06:32:26;;;;;;;17.30;14.02;;;12.90;96.40;;;;;;5072102;28;20224;-83
2021/09/08 06:34:53;;;;;;;18.02;14.23;;;13.10;96.40;;;;;;5069691;28;20202;-83
2021/09/08 06:37:21;;;;;;;14.82;13.18;;;13.40;95.90;;;;;;5068657;28;20194;-83
2021/09/08 06:39:48;;;;;;;17.73;13.13;;;13.60;95.20;;;;;;5070382;28;20216;-82
2021/09/08 06:42:15;;;;;;;14.50;13.00;;;13.60;95.20;;;;;;5067793;28;20286;-85
2021/09/08 06:44:43;;;;;;;18.67;13.35;;;13.60;95.20;;;;;;5068839;28;20198;-84
2021/09/08 06:47:10;;;;;;;16.27;12.98;;;13.70;95.40;;;;;;5085540;28;20208;-84
2021/09/08 06:49:38;;;;;;;16.52;12.82;;;13.70;95.30;;;;;;5089241;28;20205;-83
2021/09/08 06:52:05;;;;;;;13.75;12.27;;;13.70;95.40;;;;;;5068121;28;20236;-84
2021/09/08 06:54:32;;;;;;;14.57;12.05;;;13.80;95.40;;;;;;5064354;28;20202;-83
2021/09/08 06:56:58;;;;;;;14.70;11.98;;;13.90;95.10;;;;;;5062803;28;20261;-83
2021/09/08 06:59:25;;;;;;;14.68;12.38;;;14.00;94.90;;;;;;5063922;28;20266;-86
2021/09/08 07:01:52;;;;;;;13.68;11.88;;;14.10;95.30;;;;;;5061456;28;20225;-84
2021/09/08 07:04:19;;;;;;;14.38;11.77;;;14.20;94.80;;;;;;5062536;28;20561;-84
2021/09/08 07:06:47;;;;;;;16.40;12.50;;;14.30;94.60;;;;;;5059352;28;20711;-83
2021/09/08 07:09:14;;;;;;;14.93;12.25;;;14.40;94.60;;;;;;5066208;28;20205;-84
2021/09/08 07:11:41;;;;;;;14.48;11.70;;;14.40;94.50;;;;;;5065212;28;20630;-83
2021/09/08 07:14:08;;;;;;;14.77;11.63;;;14.40;94.50;;;;;;5065419;28;20197;-84
2021/09/08 07:16:35;;;;;;;14.10;10.77;;;14.40;94.50;;;;;;5067013;28;20285;-83
2021/09/08 07:19:02;;;;;;;12.55;11.25;;;14.50;94.10;;;;;;5059040;28;20299;-83
2021/09/08 07:21:36;;;;;;;12.55;11.25;;;14.70;94.30;;;;;;5057029;28;20274;-83
2021/09/08 07:24:06;;;;;;;13.38;11.20;;;14.70;93.70;;;;;;5069724;28;20190;-82
2021/09/08 07:26:33;;;;;;;13.73;11.07;;;14.70;93.90;;;;;;5064943;28;20290;-83
2021/09/08 07:29:01;;;;;;;13.35;11.02;;;14.70;93.70;;;;;;5060163;28;20267;-83
2021/09/08 07:31:28;;;;;;;15.68;10.35;;;14.90;94.00;;;;;;5051717;28;20222;-84
2021/09/08 07:33:55;;;;;;;12.05;10.40;;;15.10;94.00;;;;;;5054662;28;20305;-83
2021/09/08 07:36:28;;;;;;;12.00;10.50;;;15.20;93.60;;;;;;5051380;28;20225;-83
2021/09/08 07:38:55;;;;;;;14.27;10.35;;;15.30;92.80;;;;;;5055555;28;20664;-83
2021/09/08 07:41:23;;;;;;;18.20;10.38;;;15.40;92.20;;;;;;5052350;28;20224;-83
2021/09/08 07:43:50;;;;;;;12.18;10.43;;;15.50;92.20;;;;;;5052400;28;20548;-83
2021/09/08 07:46:17;;;;;;;12.02;10.70;;;15.60;92.00;;;;;;5053836;28;20230;-84
2021/09/08 07:48:44;;;;;;;13.93;10.70;;;15.70;92.00;;;;;;5050599;28;20201;-86
2021/09/08 07:51:11;;;;;;;11.98;10.55;;;15.80;92.00;;;;;;5050639;28;20699;-85
2021/09/08 07:53:38;;;;;;;11.25;10.13;;;15.90;92.20;;;;;;5048895;28;20601;-85
2021/09/08 07:56:05;;;;;;;13.90;10.10;;;15.80;91.70;;;;;;5055308;28;20221;-85
2021/09/08 07:58:33;;;;;;;11.45;10.25;;;15.90;91.70;;;;;;5057918;28;20198;-84
2021/09/08 08:01:00;;;;;;;11.75;10.10;;;16.10;91.70;;;;;;5062380;28;20226;-84
2021/09/08 08:03:27;;;;;;;11.30;10.10;;;16.30;91.50;;;;;;5064489;28;20703;-85
2021/09/08 08:05:54;;;;;;;11.38;10.02;;;16.40;90.80;;;;;;5065206;28;20316;-84
2021/09/08 08:08:21;;;;;;;11.45;9.02;;;16.50;90.00;;;;;;5051728;28;20194;-83
2021/09/08 08:10:48;;;;;;;11.25;9.82;;;16.60;90.20;;;;;;5060216;28;20256;-81
2021/09/08 08:13:16;;;;;;;21.38;15.32;;;16.70;90.70;;;;;;5058450;28;20202;-84
2021/09/08 08:15:44;;;;;;;11.90;9.50;;;16.80;89.20;;;;;;5058205;28;20226;-84
2021/09/08 08:18:11;;;;;;;15.43;12.27;;;16.90;87.40;;;;;;5048188;28;20565;-84
2021/09/08 08:20:38;;;;;;;10.10;9.10;;;17.10;87.40;;;;;;5049711;28;20237;-84
2021/09/08 08:23:05;;;;;;;10.50;9.40;;;17.10;86.20;;;;;;5054311;28;20267;-86
2021/09/08 08:25:32;;;;;;;11.73;9.63;;;17.20;85.30;;;;;;5058546;28;20253;-86
2021/09/08 08:28:01;;;;;;;11.38;10.18;;;17.40;83.90;;;;;;5064862;28;20278;-84
2021/09/08 08:30:29;;;;;;;10.48;9.38;;;17.40;84.40;;;;;;5061561;28;20392;-84
2021/09/08 08:32:57;;;;;;;13.18;9.40;;;17.40;84.90;;;;;;5065118;28;20245;-84
2021/09/08 08:35:25;;;;;;;12.05;10.10;;;17.50;83.70;;;;;;5055579;28;20228;-83
2021/09/08 08:37:52;;;;;;;11.88;10.02;;;17.70;81.90;;;;;;5063558;28;20208;-83
2021/09/08 08:40:21;;;;;;;22.02;17.00;;;17.80;81.20;;;;;;5065307;28;20725;-86
2021/09/08 08:42:48;;;;;;;10.57;9.48;;;17.80;82.00;;;;;;5061574;28;20236;-84
2021/09/08 08:45:16;;;;;;;13.20;9.70;;;17.90;81.30;;;;;;5061771;28;20235;-85
2021/09/08 08:47:43;;;;;;;11.35;9.32;;;17.90;81.20;;;;;;5065097;28;20205;-86
2021/09/08 08:50:13;;;;;;;12.00;10.52;;;18.10;81.00;;;;;;5056795;28;20232;-83
2021/09/08 08:52:41;;;;;;;11.70;10.50;;;18.20;79.50;;;;;;5059969;28;20560;-84
2021/09/08 08:55:10;;;;;;;13.88;10.07;;;18.40;78.50;;;;;;5057382;28;20229;-84
2021/09/08 08:57:37;;;;;;;11.15;9.82;;;18.70;76.90;;;;;;5048004;28;20194;-86
2021/09/08 09:00:07;;;;;;;10.43;9.43;;;18.90;76.30;;;;;;5057152;28;20206;-80
2021/09/08 09:02:35;;;;;;;10.70;9.63;;;19.50;73.30;;;;;;5065902;28;20426;-81
2021/09/08 09:05:04;;;;;;;11.25;10.15;;;20.40;66.00;;;;;;5056928;28;20210;-79
2021/09/08 09:07:33;;;;;;;13.82;10.13;;;22.20;54.70;;;;;;5051313;28;20201;-79
2021/09/08 09:10:03;;;;;;;12.50;8.95;;;23.60;41.00;;;;;;5049917;28;20283;-80
2021/09/08 09:12:33;;;;;;;13.35;10.40;;;24.90;36.20;;;;;;5045433;28;20568;-80
2021/09/08 09:15:00;;;;;;;11.23;9.18;;;25.20;34.80;;;;;;5043462;28;20288;-79
2021/09/08 09:17:29;;;;;;;9.65;8.65;;;26.80;30.30;;;;;;5051204;28;20197;-80
2021/09/08 09:19:57;;;;;;;11.43;9.90;;;28.10;26.40;;;;;;5051146;28;20198;-80
2021/09/08 09:22:34;;;;;;;10.63;9.63;;;29.10;23.70;;;;;;5050439;28;20221;-81
2021/09/08 09:25:03;;;;;;;11.82;9.38;;;30.10;20.80;;;;;;5050137;28;20205;-81
2021/09/08 09:27:35;;;;;;;10.25;9.38;;;30.10;20.00;;;;;;5057054;28;20231;-82
2021/09/08 09:30:08;;;;;;;9.95;9.02;;;30.50;19.40;;;;;;5059769;28;20197;-83
2021/09/08 09:32:40;;;;;;;9.32;8.63;;;30.60;19.30;;;;;;5064452;28;20228;-82
2021/09/08 09:35:09;;;;;;;11.35;10.25;;;30.60;19.60;;;;;;5065851;28;20206;-84
2021/09/08 09:37:41;;;;;;;9.98;9.07;;;30.20;19.60;;;;;;5054738;28;20194;-82
2021/09/08 09:40:10;;;;;;;10.27;9.57;;;30.80;18.80;;;;;;5059436;28;20197;-85
2021/09/08 09:42:41;;;;;;;10.23;9.25;;;31.20;17.30;;;;;;5060408;28;20232;-81
2021/09/08 09:45:10;;;;;;;9.63;8.73;;;31.20;17.20;;;;;;5059562;28;20197;-82
2021/09/08 09:47:37;;;;;;;10.15;9.18;;;31.50;17.40;;;;;;5058098;28;20197;-82
2021/09/08 09:50:07;;;;;;;9.13;8.30;;;32.40;16.70;;;;;;5057193;28;20274;-81
2021/09/08 09:52:34;;;;;;;10.30;9.30;;;32.40;17.70;;;;;;5060421;28;20200;-81
2021/09/08 09:55:01;;;;;;;9.63;8.63;;;32.00;16.70;;;;;;5060708;28;20198;-82
2021/09/08 09:57:30;;;;;;;10.20;9.20;;;31.40;17.30;;;;;;5063429;28;20204;-84
2021/09/08 09:59:58;;;;;;;10.07;9.07;;;31.70;17.40;;;;;;5061573;28;20197;-83
2021/09/08 10:02:26;;;;;;;9.07;8.23;;;30.90;17.10;;;;;;5060191;28;20198;-81
2021/09/08 10:04:52;;;;;;;9.35;8.65;;;31.20;17.90;;;;;;5065338;28;20221;-82
2021/09/08 10:07:22;;;;;;;9.52;8.52;;;30.20;18.30;;;;;;5063356;28;20209;-82
2021/09/08 10:09:54;;;;;;;9.88;8.90;;;31.40;17.30;;;;;;5064719;28;20209;-81
2021/09/08 10:12:28;;;;;;;9.52;8.63;;;32.20;17.70;;;;;;5067697;28;20194;-82
2021/09/08 10:14:57;;;;;;;8.90;8.10;;;31.90;17.50;;;;;;5066290;28;20198;-83
2021/09/08 10:17:25;;;;;;;9.02;8.32;;;32.30;18.10;;;;;;5062877;28;20645;-82
2021/09/08 10:20:03;;;;;;;9.07;8.27;;;32.50;16.80;;;;;;5054065;28;20196;-81
2021/09/08 10:22:30;;;;;;;8.68;7.97;;;31.90;17.50;;;;;;5061133;28;20212;-81
2021/09/08 10:24:57;;;;;;;9.20;8.52;;;31.70;17.50;;;;;;5059114;28;20194;-82
2021/09/08 10:27:29;;;;;;;9.23;8.25;;;32.20;17.10;;;;;;5055873;28;20202;-82
2021/09/08 10:29:57;;;;;;;8.68;7.88;;;32.00;17.60;;;;;;5058481;28;20221;-83
2021/09/08 10:32:24;;;;;;;9.15;8.35;;;32.60;17.90;;;;;;5062061;28;20217;-82
2021/09/08 10:34:51;;;;;;;8.63;7.88;;;32.30;16.80;;;;;;5058242;28;20202;-82
2021/09/08 10:37:19;;;;;;;10.02;8.63;;;31.80;17.50;;;;;;5061314;28;20200;-85
2021/09/08 10:39:47;;;;;;;8.82;8.10;;;31.60;17.40;;;;;;5058640;28;20198;-83
2021/09/08 10:42:14;;;;;;;9.23;8.32;;;30.80;17.00;;;;;;5059612;28;20304;-81
2021/09/08 10:44:43;;;;;;;8.65;7.95;;;31.00;18.00;;;;;;5050688;28;20232;-81
2021/09/08 10:47:11;;;;;;;8.60;7.72;;;30.60;19.20;;;;;;5062705;28;20224;-81
2021/09/08 10:49:49;;;;;;;8.80;7.90;;;30.70;18.70;;;;;;5061236;28;20216;-81
2021/09/08 10:52:44;;;;;;;8.50;7.80;;;30.20;19.50;;;;;;5062090;28;20225;-84
2021/09/08 10:55:13;;;;;;;8.45;7.65;;;30.40;19.40;;;;;;5062245;28;20232;-82
2021/09/08 10:57:59;;;;;;;8.45;7.75;;;30.00;21.40;;;;;;5060909;28;20194;-81
2021/09/08 11:00:35;;;;;;;8.68;7.78;;;30.90;18.60;;;;;;5055515;28;20259;-81
2021/09/08 11:03:25;;;;;;;8.98;8.27;;;30.80;17.60;;;;;;5052753;28;20231;-82
2021/09/08 11:05:55;;;;;;;9.18;8.38;;;30.20;19.30;;;;;;5051056;28;20355;-81
2021/09/08 11:08:24;;;;;;;8.57;7.85;;;29.10;19.80;;;;;;5050912;28;20202;-79
2021/09/08 11:10:52;;;;;;;7.55;6.85;;;28.60;21.60;;;;;;5052118;28;20252;-80
2021/09/08 11:13:26;;;;;;;7.85;7.15;;;28.00;23.20;;;;;;5051496;28;20195;-79
2021/09/08 11:15:54;;;;;;;7.90;7.15;;;27.50;26.00;;;;;;5049335;28;20347;-79
2021/09/08 11:18:34;;;;;;;10.15;7.28;;;26.90;27.60;;;;;;5052268;28;20202;-81
2021/09/08 11:21:03;;;;;;;7.97;7.15;;;26.60;26.70;;;;;;5052810;28;20231;-82
2021/09/08 11:23:30;;;;;;;9.02;7.18;;;26.40;28.20;;;;;;5050228;28;20685;-79
2021/09/08 11:26:05;;;;;;;7.82;7.03;;;26.10;29.00;;;;;;5044296;28;20230;-78
2021/09/08 11:28:33;;;;;;;8.00;7.20;;;25.50;31.60;;;;;;5048502;28;20200;-76
2021/09/08 11:31:00;;;;;;;10.95;7.40;;;25.60;29.60;;;;;;5052131;28;20228;-78
2021/09/08 11:33:36;;;;;;;8.40;7.47;;;25.70;29.20;;;;;;5044542;28;20616;-79
2021/09/08 11:36:10;;;;;;;9.88;7.10;;;25.70;29.20;;;;;;5051221;28;20233;-79
2021/09/08 11:38:41;;;;;;;8.75;7.90;;;25.80;30.30;;;;;;5049707;28;20285;-79
2021/09/08 11:41:08;;;;;;;7.93;7.18;;;25.60;31.00;;;;;;5049710;28;20221;-79
2021/09/08 11:43:37;;;;;;;7.80;7.00;;;25.60;29.50;;;;;;5048587;28;20222;-80
2021/09/08 11:46:11;;;;;;;8.40;6.72;;;25.60;29.10;;;;;;5052227;28;20226;-82
2021/09/08 11:48:39;;;;;;;8.82;7.35;;;25.30;30.60;;;;;;5051854;28;20206;-82
2021/09/08 11:51:08;;;;;;;8.90;7.05;;;25.30;31.10;;;;;;5050708;28;20225;-81
2021/09/08 11:53:35;;;;;;;10.15;6.80;;;25.20;31.20;;;;;;5054391;28;20202;-81
2021/09/08 11:56:07;;;;;;;7.70;6.90;;;25.10;32.50;;;;;;5053045;28;20228;-81
2021/09/08 11:58:34;;;;;;;9.45;7.38;;;25.20;36.30;;;;;;5053175;28;20201;-80
2021/09/08 12:01:04;;;;;;;8.20;7.03;;;25.30;32.50;;;;;;5053039;28;20221;-81
2021/09/08 12:03:32;;;;;;;8.45;7.05;;;25.30;33.20;;;;;;5055043;28;20230;-81
2021/09/08 12:06:19;;;;;;;8.95;7.35;;;25.30;33.00;;;;;;5054963;28;20225;-81
2021/09/08 12:08:51;;;;;;;8.73;7.93;;;25.20;33.20;;;;;;5048098;28;20197;-81
2021/09/08 12:11:34;;;;;;;8.93;7.40;;;25.00;32.80;;;;;;5054414;28;20232;-80
2021/09/08 12:14:41;;;;;;;8.35;7.13;;;25.20;32.80;;;;;;5054994;28;20205;-80
2021/09/08 12:17:23;;;;;;;7.70;6.97;;;25.30;31.80;;;;;;5024564;28;20221;-80
2021/09/08 12:19:57;;;;;;;8.77;7.15;;;25.30;31.90;;;;;;5055756;28;20193;-80
2021/09/08 12:22:26;;;;;;;9.43;7.65;;;25.20;32.30;;;;;;5073788;28;20210;-80
2021/09/08 12:24:55;;;;;;;9.35;7.05;;;25.20;32.30;;;;;;5073872;28;20229;-81
2021/09/08 12:27:27;;;;;;;8.05;6.82;;;25.20;32.40;;;;;;5054267;28;20225;-80
2021/09/08 12:29:55;;;;;;;8.70;6.93;;;25.20;33.20;;;;;;5055313;28;20624;-80
2021/09/08 12:32:21;;;;;;;8.05;7.30;;;25.10;32.60;;;;;;5047240;28;20190;-80
2021/09/08 12:34:51;;;;;;;9.07;7.15;;;25.10;31.50;;;;;;5053785;28;20212;-81
2021/09/08 12:37:22;;;;;;;7.63;6.80;;;24.90;33.30;;;;;;5056000;28;20677;-81
2021/09/08 12:39:53;;;;;;;7.32;6.47;;;24.90;33.00;;;;;;5056121;28;20198;-80